• Join FlightAware (Why Join?)
  • Login
  • US Flag 
07:32AM EST


 

Airport Tracker/Info


-or-


 

Live Flight TrackerFlight Track Log ✈ PAL431 ✈ 10-May-2013 ✈ RJAA / NRT - RPLL / MNL

Flight Track Log - Related Links

Times and Time Zones

All times are in EDT time to prevent confusion due to time zone crossing. See the PAL431 flight status page for this flight to view local times or setup timezone preferences in your user account.

Time Position Orientation Groundspeed Altitude Reporting Facility
EDT Latitude Longitude Course Direction KTS MPH feet Rate Location/Type
09:02PM 35.7320 140.3990 150° Southeast 183 211 1,400  Level FlightAware
09:02PM 35.7240 140.4040 153° Southeast 184 212 1,900 2,820 Climbing FlightAware
09:03PM 35.7010 140.4210 149° Southeast 183 211 3,300 1,980 Climbing FlightAware
09:03PM 35.6800 140.4370 148° Southeast 219 252 3,900 1,200 Climbing FlightAware
09:03PM 35.6530 140.4550 152° Southeast 264 304 4,400 2,160 Climbing FlightAware
09:04PM 35.6220 140.4790 148° Southeast 270 311 5,900 2,460 Climbing FlightAware
09:04PM 35.5890 140.5020 150° Southeast 279 321 6,900 1,440 Climbing FlightAware
09:05PM 35.5440 140.5360 148° Southeast 284 327 7,600 1,320 Climbing FlightAware
09:05PM 35.5380 140.5450 129° Southeast 288 331 8,000 3,000 Climbing FlightAware
09:06PM 35.5220 140.5790 120° Southeast 294 338 9,100 2,700 Climbing FlightAware
09:06PM 35.5000 140.6360 115° Southeast 315 362 10,700 1,800 Climbing FlightAware
09:07PM 35.4680 140.7200 115° Southeast 377 434 11,700 2,220 Climbing FlightAware
09:08PM 35.4370 140.8000 115° Southeast 403 464 13,900 3,120 Climbing FlightAware
09:08PM 35.4020 140.8870 116° Southeast 422 486 15,900 2,880 Climbing FlightAware
09:09PM 35.3630 140.9380 133° Southeast 430 495 17,300 2,640 Climbing FlightAware
09:10PM 35.2610 140.9470 176° South 430 495 19,900 2,820 Climbing FlightAware
09:10PM 35.2060 140.9250 198° South 430 495 21,300 2,640 Climbing FlightAware
09:11PM 35.1340 140.8980 197° South 448 516 22,800 2,880 Climbing FlightAware
09:12PM 35.0480 140.8670 196° South 437 503 25,200 2,880 Climbing FlightAware
09:12PM 34.9550 140.8330 197° South 458 527 26,900 1,860 Climbing FlightAware
09:13PM 34.8740 140.8020 197° South 471 542 27,900 1,800 Climbing FlightAware
09:14PM 34.7750 140.7660 197° South 490 564 29,500 2,040 Climbing FlightAware
09:14PM 34.6890 140.7340 197° South 500 575 30,800 1,920 Climbing FlightAware
09:15PM 34.5860 140.6960 197° South 508 585 32,300 1,800 Climbing FlightAware
09:16PM 34.4970 140.6600 198° South 500 575 33,400 1,800 Climbing FlightAware
09:17PM 34.4320 140.6020 216° Southwest 489 563 34,700 2,160 Climbing FlightAware
09:17PM 34.3610 140.5090 227° Southwest 470 541 36,500 1,920 Climbing FlightAware
09:18PM 34.3050 140.4310 229° Southwest 467 537 37,500 1,080 Climbing FlightAware
09:19PM 34.2460 140.3480 229° Southwest 464 534 38,000 360 Climbing FlightAware
09:19PM 34.1980 140.2820 229° Southwest 464 534 38,000  Level FlightAware
09:20PM 34.1380 140.1990 229° Southwest 464 534 38,000  Level FlightAware
09:21PM 34.0740 140.1110 229° Southwest 464 534 38,000  Level FlightAware
09:21PM 34.0110 140.0250 229° Southwest 463 533 38,000  Level FlightAware
09:22PM 33.9350 139.9200 229° Southwest 462 532 38,000  Level FlightAware
09:23PM 33.8750 139.8390 228° Southwest 463 533 38,000  Level FlightAware
09:24PM 33.8080 139.7470 229° Southwest 464 534 38,000  Level FlightAware
09:24PM 33.7650 139.6900 228° Southwest 464 534 38,000  Level FlightAware
09:25PM 33.6990 139.5990 229° Southwest 466 536 38,000  Level FlightAware
09:26PM 33.6290 139.5050 228° Southwest 465 535 38,000  Level FlightAware
09:27PM 33.5740 139.4310 228° Southwest 465 535 38,000  Level FlightAware
09:28PM 33.4710 139.2930 228° Southwest 462 532 38,000  Level FlightAware
09:29PM 33.3900 139.1840 228° Southwest 463 533 38,000  Level FlightAware
09:29PM 33.3350 139.1100 228° Southwest 463 533 38,000  Level FlightAware
09:30PM 33.2830 139.0410 228° Southwest 464 534 38,000  Level FlightAware
09:31PM 33.2130 138.9480 228° Southwest 465 535 38,000  Level FlightAware
09:32PM 33.1310 138.8390 228° Southwest 461 531 38,000  Level FlightAware
09:33PM 33.0670 138.7540 228° Southwest 462 532 38,000  Level FlightAware
09:33PM 32.9930 138.6560 228° Southwest 459 528 38,000  Level FlightAware
09:34PM 32.9270 138.5700 228° Southwest 460 529 38,000  Level FlightAware
09:35PM 32.8620 138.4840 228° Southwest 459 528 38,000  Level FlightAware
09:36PM 32.8010 138.4050 227° Southwest 458 527 38,000  Level FlightAware
09:36PM 32.7180 138.2960 228° Southwest 457 526 38,000  Level FlightAware
09:38PM 32.6250 138.1740 228° Southwest 459 528 38,000  Level FlightAware
09:38PM 32.5680 138.1000 228° Southwest 459 528 38,000  Level FlightAware
09:39PM 32.5060 138.0190 228° Southwest 458 527 38,000  Level FlightAware
09:40PM 32.4250 137.9150 227° Southwest 459 528 38,000  Level FlightAware
09:40PM 32.3790 137.8540 228° Southwest 459 528 38,000  Level FlightAware
09:41PM 32.3300 137.7910 227° Southwest 459 528 38,000  Level FlightAware
09:42PM 32.2190 137.6500 227° Southwest 460 529 38,000  Level FlightAware
09:43PM 32.1590 137.5720 228° Southwest 461 531 38,000  Level FlightAware
09:44PM 32.1110 137.5080 228° Southwest 461 531 38,000  Level FlightAware
09:44PM 32.0620 137.4450 227° Southwest 461 531 38,000  Level FlightAware
09:45PM 31.9810 137.3460 226° Southwest 453 521 38,000  Level FlightAware
09:46PM 31.9210 137.2690 227° Southwest 456 525 38,000  Level FlightAware
09:46PM 31.8630 137.1970 227° Southwest 456 525 38,000  Level FlightAware
09:47PM 31.8140 137.1350 227° Southwest 456 525 38,000  Level FlightAware
09:48PM 31.7660 137.0730 228° Southwest 456 525 38,000  Level FlightAware
09:48PM 31.7170 137.0120 227° Southwest 456 525 38,000  Level FlightAware
09:49PM 31.6550 136.9350 227° Southwest 456 525 38,000  Level FlightAware
09:50PM 31.6070 136.8730 228° Southwest 456 525 38,000  Level FlightAware
09:51PM 31.5580 136.8110 227° Southwest 456 525 38,000  Level FlightAware
09:51PM 31.5090 136.7500 227° Southwest 456 525 38,000  Level FlightAware
09:52PM 31.4600 136.6880 227° Southwest 456 525 38,000  Level FlightAware
09:53PM 31.4110 136.6270 227° Southwest 456 525 38,000  Level FlightAware
09:53PM 31.3500 136.5500 227° Southwest 456 525 38,000  Level FlightAware
09:54PM 31.3010 136.4890 227° Southwest 456 525 38,000  Level FlightAware
09:55PM 31.2520 136.4270 227° Southwest 456 525 38,000  Level FlightAware
09:55PM 31.2030 136.3660 227° Southwest 456 525 38,000  Level FlightAware
09:58PM 31.0519 136.1984 224° Southwest  Level Estimated
09:59PM 30.9782 136.1168 223° Southwest  Level Estimated
10:00PM 30.9043 136.0354 223° Southwest  Level Estimated
10:01PM 30.8305 135.9541 223° Southwest  Level Estimated
10:02PM 30.7565 135.8729 223° Southwest  Level Estimated
10:03PM 30.6826 135.7918 223° Southwest  Level Estimated
10:04PM 30.6085 135.7109 223° Southwest  Level Estimated
10:05PM 30.5344 135.6301 223° Southwest  Level Estimated
10:06PM 30.4603 135.5494 223° Southwest  Level Estimated
10:07PM 30.3861 135.4688 223° Southwest  Level Estimated
10:08PM 30.3119 135.3884 223° Southwest  Level Estimated
10:09PM 30.2376 135.3080 223° Southwest  Level Estimated
10:10PM 30.1633 135.2278 223° Southwest  Level Estimated
10:11PM 30.0889 135.1478 223° Southwest  Level Estimated
10:12PM 30.0145 135.0678 223° Southwest  Level Estimated
10:13PM 29.9400 134.9879 223° Southwest  Level Estimated
10:14PM 29.8655 134.9082 223° Southwest  Level Estimated
10:15PM 29.7910 134.8286 223° Southwest  Level Estimated
10:16PM 29.7163 134.7491 223° Southwest  Level Estimated
10:17PM 29.6417 134.6698 223° Southwest  Level Estimated
10:18PM 29.5670 134.5905 223° Southwest  Level Estimated
10:19PM 29.4922 134.5114 223° Southwest  Level Estimated
10:20PM 29.4174 134.4324 223° Southwest  Level Estimated
10:21PM 29.3426 134.3535 223° Southwest  Level Estimated
10:22PM 29.2677 134.2747 223° Southwest  Level Estimated
10:23PM 29.1927 134.1960 223° Southwest  Level Estimated
10:24PM 29.1178 134.1175 222° Southwest  Level Estimated
10:25PM 29.0427 134.0390 222° Southwest  Level Estimated
10:26PM 28.9676 133.9607 222° Southwest  Level Estimated
10:27PM 28.8925 133.8825 222° Southwest  Level Estimated
10:28PM 28.8174 133.8044 222° Southwest  Level Estimated
10:29PM 28.7421 133.7264 222° Southwest  Level Estimated
10:30PM 28.6669 133.6485 222° Southwest  Level Estimated
10:31PM 28.5916 133.5708 222° Southwest  Level Estimated
10:32PM 28.5162 133.4931 222° Southwest  Level Estimated
10:33PM 28.4408 133.4156 222° Southwest  Level Estimated
10:34PM 28.3654 133.3382 222° Southwest  Level Estimated
10:35PM 28.2899 133.2608 222° Southwest  Level Estimated
10:36PM 28.2144 133.1836 222° Southwest  Level Estimated
10:37PM 28.1388 133.1065 222° Southwest  Level Estimated
10:38PM 28.0632 133.0295 222° Southwest  Level Estimated
10:39PM 27.9876 132.9527 222° Southwest  Level Estimated
10:40PM 27.9119 132.8759 222° Southwest  Level Estimated
10:41PM 27.8362 132.7992 222° Southwest  Level Estimated
10:42PM 27.7604 132.7226 222° Southwest  Level Estimated
10:43PM 27.6846 132.6462 222° Southwest  Level Estimated
10:44PM 27.6087 132.5698 222° Southwest  Level Estimated
10:45PM 27.5328 132.4936 222° Southwest  Level Estimated
10:46PM 27.4569 132.4175 222° Southwest  Level Estimated
10:47PM 27.3809 132.3414 222° Southwest  Level Estimated
10:48PM 27.3048 132.2655 222° Southwest  Level Estimated
10:49PM 27.2288 132.1897 222° Southwest  Level Estimated
10:50PM 27.1527 132.1140 222° Southwest  Level Estimated
10:51PM 27.0765 132.0383 221° Southwest  Level Estimated
10:52PM 27.0003 131.9628 221° Southwest  Level Estimated
10:53PM 26.9241 131.8874 221° Southwest  Level Estimated
10:54PM 26.8478 131.8121 221° Southwest  Level Estimated
10:55PM 26.7715 131.7369 221° Southwest  Level Estimated
10:56PM 26.6952 131.6618 221° Southwest  Level Estimated
10:57PM 26.6188 131.5868 221° Southwest  Level Estimated
10:58PM 26.5423 131.5119 221° Southwest  Level Estimated
10:59PM 26.4659 131.4371 221° Southwest  Level Estimated
11:00PM 26.3894 131.3623 221° Southwest  Level Estimated
11:01PM 26.3128 131.2877 221° Southwest  Level Estimated
11:02PM 26.2362 131.2132 221° Southwest  Level Estimated
11:03PM 26.1596 131.1388 221° Southwest  Level Estimated
11:04PM 26.0829 131.0645 221° Southwest  Level Estimated
11:05PM 26.0062 130.9903 221° Southwest  Level Estimated
11:06PM 25.9295 130.9162 221° Southwest  Level Estimated
11:07PM 25.8527 130.8421 221° Southwest  Level Estimated
11:08PM 25.7759 130.7682 221° Southwest  Level Estimated
11:09PM 25.6991 130.6944 221° Southwest  Level Estimated
11:10PM 25.6222 130.6206 221° Southwest  Level Estimated
11:11PM 25.5453 130.5470 221° Southwest  Level Estimated
11:12PM 25.4683 130.4734 221° Southwest  Level Estimated
11:13PM 25.3913 130.4000 221° Southwest  Level Estimated
11:14PM 25.3143 130.3266 221° Southwest  Level Estimated
11:15PM 25.2372 130.2534 221° Southwest  Level Estimated
11:16PM 25.1601 130.1802 221° Southwest  Level Estimated
11:17PM 25.0830 130.1071 221° Southwest  Level Estimated
11:18PM 25.0058 130.0341 221° Southwest  Level Estimated
11:19PM 24.9286 129.9612 221° Southwest  Level Estimated
11:20PM 24.8513 129.8884 221° Southwest  Level Estimated
11:21PM 24.7740 129.8157 221° Southwest  Level Estimated
11:22PM 24.6967 129.7431 220° Southwest  Level Estimated
11:23PM 24.6194 129.6705 220° Southwest  Level Estimated
11:24PM 24.5420 129.5981 220° Southwest  Level Estimated
11:25PM 24.4646 129.5257 220° Southwest  Level Estimated
11:26PM 24.3871 129.4534 220° Southwest  Level Estimated
11:27PM 24.3096 129.3813 220° Southwest  Level Estimated
11:28PM 24.2321 129.3092 220° Southwest  Level Estimated
11:29PM 24.1545 129.2372 220° Southwest  Level Estimated
11:30PM 24.0769 129.1653 220° Southwest  Level Estimated
11:31PM 23.9993 129.0934 220° Southwest  Level Estimated
11:32PM 23.9216 129.0217 220° Southwest  Level Estimated
11:33PM 23.8439 128.9500 220° Southwest  Level Estimated
11:34PM 23.7662 128.8784 220° Southwest  Level Estimated
11:35PM 23.6884 128.8070 220° Southwest  Level Estimated
11:36PM 23.6107 128.7356 220° Southwest  Level Estimated
11:37PM 23.5328 128.6643 220° Southwest  Level Estimated
11:38PM 23.4550 128.5930 220° Southwest  Level Estimated
11:39PM 23.3771 128.5219 220° Southwest  Level Estimated
11:40PM 23.2992 128.4508 220° Southwest  Level Estimated
11:41PM 23.2212 128.3798 220° Southwest  Level Estimated
11:42PM 23.1432 128.3089 220° Southwest  Level Estimated
11:43PM 23.0652 128.2381 220° Southwest  Level Estimated
11:44PM 22.9872 128.1674 220° Southwest  Level Estimated
11:45PM 22.9091 128.0968 220° Southwest  Level Estimated
11:46PM 22.8310 128.0262 220° Southwest  Level Estimated
11:47PM 22.7528 127.9557 220° Southwest  Level Estimated
11:48PM 22.6747 127.8853 220° Southwest  Level Estimated
11:49PM 22.5965 127.8149 220° Southwest  Level Estimated
11:50PM 22.5182 127.7447 220° Southwest  Level Estimated
11:51PM 22.4400 127.6745 220° Southwest  Level Estimated
11:52PM 22.3617 127.6044 220° Southwest  Level Estimated
11:53PM 22.2833 127.5344 220° Southwest  Level Estimated
11:54PM 22.2050 127.4645 220° Southwest  Level Estimated
11:55PM 22.1266 127.3947 220° Southwest  Level Estimated
11:56PM 22.0482 127.3249 220° Southwest  Level Estimated
11:57PM 21.9697 127.2552 219° Southwest  Level Estimated
11:58PM 21.8913 127.1855 219° Southwest  Level Estimated
11:59PM 21.8128 127.1160 219° Southwest  Level Estimated
12:00AM 21.7342 127.0465 219° Southwest  Level Estimated
12:01AM 21.6557 126.9771 219° Southwest  Level Estimated
12:02AM 21.5771 126.9078 219° Southwest  Level Estimated
12:03AM 21.4985 126.8386 219° Southwest  Level Estimated
12:04AM 21.4198 126.7694 219° Southwest  Level Estimated
12:05AM 21.3412 126.7003 219° Southwest  Level Estimated
12:06AM 21.2624 126.6313 219° Southwest  Level Estimated
12:07AM 21.1837 126.5624 219° Southwest  Level Estimated
12:08AM 21.1050 126.4935 219° Southwest  Level Estimated
12:09AM 21.0262 126.4247 219° Southwest  Level Estimated
12:10AM 20.9474 126.3560 219° Southwest  Level Estimated
12:11AM 20.8685 126.2873 219° Southwest  Level Estimated
12:12AM 20.7896 126.2187 219° Southwest  Level Estimated
12:13AM 20.7108 126.1502 219° Southwest  Level Estimated
12:14AM 20.6318 126.0818 219° Southwest  Level Estimated
12:15AM 20.5529 126.0134 219° Southwest  Level Estimated
12:16AM 20.4739 125.9451 219° Southwest  Level Estimated
12:17AM 20.3949 125.8769 219° Southwest  Level Estimated
12:18AM 20.3159 125.8087 219° Southwest  Level Estimated
12:19AM 20.2368 125.7406 219° Southwest  Level Estimated
12:20AM 20.1577 125.6726 219° Southwest  Level Estimated
12:21AM 20.0786 125.6047 219° Southwest  Level Estimated
12:22AM 19.9995 125.5368 219° Southwest  Level Estimated
12:23AM 19.9203 125.4690 219° Southwest  Level Estimated
12:24AM 19.8411 125.4012 219° Southwest  Level Estimated
12:25AM 19.7619 125.3336 219° Southwest  Level Estimated
12:26AM 19.6827 125.2660 219° Southwest  Level Estimated
12:27AM 19.6034 125.1984 219° Southwest  Level Estimated
12:28AM 19.5241 125.1309 219° Southwest  Level Estimated
12:29AM 19.4448 125.0635 219° Southwest  Level Estimated
12:30AM 19.3655 124.9962 219° Southwest  Level Estimated
12:31AM 19.2861 124.9289 219° Southwest  Level Estimated
12:32AM 19.2067 124.8617 219° Southwest  Level Estimated
12:33AM 19.1273 124.7945 219° Southwest  Level Estimated
12:34AM 19.0479 124.7275 219° Southwest  Level Estimated
12:35AM 18.9684 124.6604 219° Southwest  Level Estimated
12:36AM 18.8889 124.5935 219° Southwest  Level Estimated
12:37AM 18.8094 124.5266 219° Southwest  Level Estimated
12:38AM 18.7299 124.4598 219° Southwest  Level Estimated
12:39AM 18.6503 124.3930 218° Southwest  Level Estimated
12:40AM 18.5708 124.3263 218° Southwest  Level Estimated
12:41AM 18.4912 124.2597 218° Southwest  Level Estimated
12:42AM 18.4115 124.1931 218° Southwest  Level Estimated
12:43AM 18.3319 124.1265 218° Southwest  Level Estimated
12:44AM 18.2522 124.0601 218° Southwest  Level Estimated
12:45AM 18.1725 123.9937 218° Southwest  Level Estimated
12:46AM 18.0928 123.9274 218° Southwest  Level Estimated
12:47AM 18.0131 123.8611 218° Southwest  Level Estimated
12:48AM 17.9333 123.7949 218° Southwest  Level Estimated
12:49AM 17.8535 123.7287 218° Southwest  Level Estimated
12:50AM 17.7737 123.6626 218° Southwest  Level Estimated
12:51AM 17.6939 123.5966 218° Southwest  Level Estimated
12:52AM 17.6140 123.5306 218° Southwest  Level Estimated
12:53AM 17.5341 123.4647 218° Southwest  Level Estimated
12:54AM 17.4542 123.3988 218° Southwest  Level Estimated
12:55AM 17.3743 123.3330 218° Southwest  Level Estimated
12:56AM 17.2944 123.2673 218° Southwest  Level Estimated
12:57AM 17.2144 123.2016 218° Southwest  Level Estimated
12:58AM 17.1344 123.1360 218° Southwest  Level Estimated
12:59AM 17.0544 123.0704 218° Southwest  Level Estimated
01:00AM 16.9744 123.0049 218° Southwest  Level Estimated
01:01AM 16.8944 122.9394 218° Southwest  Level Estimated
01:02AM 16.8143 122.8740 218° Southwest  Level Estimated
01:03AM 16.7342 122.8086 218° Southwest  Level Estimated
01:04AM 16.6541 122.7433 218° Southwest  Level Estimated
01:05AM 16.5740 122.6781 218° Southwest  Level Estimated
01:06AM 16.4938 122.6129 218° Southwest  Level Estimated
01:07AM 16.4137 122.5478 218° Southwest  Level Estimated
01:08AM 16.3335 122.4827 218° Southwest  Level Estimated
01:09AM 16.2533 122.4177 218° Southwest  Level Estimated
01:10AM 16.1730 122.3527 218° Southwest  Level Estimated
01:11AM 16.0928 122.2878 218° Southwest  Level Estimated
01:12AM 16.0125 122.2229 218° Southwest  Level Estimated
01:13AM 15.9322 122.1581 218° Southwest  Level Estimated
01:14AM 15.8519 122.0933 218° Southwest  Level Estimated
01:15AM 15.7716 122.0286 218° Southwest  Level Estimated
01:16AM 15.6912 121.9640 218° Southwest  Level Estimated
01:17AM 15.6109 121.8993 218° Southwest  Level Estimated
01:18AM 15.5305 121.8348 218° Southwest  Level Estimated
01:19AM 15.4501 121.7703 218° Southwest  Level Estimated
01:20AM 15.3697 121.7058 218° Southwest  Level Estimated
01:21AM 15.2892 121.6414 218° Southwest  Level Estimated
01:22AM 15.2088 121.5770 218° Southwest  Level Estimated
01:23AM 15.1283 121.5127 218° Southwest  Level Estimated
01:24AM 15.0478 121.4485 218° Southwest  Level Estimated
01:25AM 14.9673 121.3842 218° Southwest  Level Estimated
01:26AM 14.8868 121.3201 218° Southwest  Level Estimated
01:27AM 14.8062 121.2560 218° Southwest  Level Estimated
01:28AM 14.7257 121.1919 218° Southwest  Level Estimated
01:29AM 14.6451 121.1279 218° Southwest  Level Estimated
01:30AM 14.5645 121.0639 218° Southwest  Level Estimated
01:31AM 14.5086 121.0196 218° Southwest  Level Estimated
01:32AM 14.5086 121.0196 162° South  Level Estimated
01:33AM 14.5086 121.0196 162° South  Level Estimated
01:34AM 14.5086 121.0196 162° South  Level Estimated
01:35AM 14.5086 121.0196 162° South  Level Estimated
01:36AM 14.5086 121.0196 162° South  Level Estimated
01:37AM 14.5086 121.0196 162° South  Level Estimated
01:38AM 14.5086 121.0196 162° South  Level Estimated
01:39AM 14.5086 121.0196 162° South  Level Estimated
01:40AM 14.5086 121.0196 162° South  Level Estimated
01:41AM 14.5086 121.0196 162° South  Level Estimated
01:42AM 14.5086 121.0196 162° South  Level Estimated
01:43AM 14.5086 121.0196 162° South  Level Estimated
01:44AM 14.5086 121.0196 162° South  Level Estimated
01:45AM 14.5086 121.0196 162° South  Level Estimated
01:46AM 14.5086 121.0196 162° South  Level Estimated
01:47AM 14.5086 121.0196 162° South  Level Estimated
01:48AM 14.5086 121.0196 162° South  Level Estimated